North Battleford Airport
CYQW : rendu visible

Aérodrome :











RETROUVEZ-NOUS SUR...

 
LOGIN :

S'inscrire | Disclaimer

   EN    FR    IT 

 









Légende :    VFR   VFR Marginal   IFR   IFR Intensif   IFR Très Intensif
Visi : 
Plafond : 
>= 8 km
>= 3000ft
5 à 8 km
1000 à 3000 ft
1500m à 5 km
500 à 1000 ft
800 à 1500m
200 à 500 ft
< 800m
< 200 ft
Symboles :   Orages  Brouillard  Fortes neiges  Fortes précipitations  Vent > 20 kt






- Altitude de l'aérodrome : 1799 ft
- Code IATA : YQW


CYQW - North Battleford

DERNIER METAR :
  • 191700Z AUTO 27004KT 230V290 9SM FEW095 06/M00 A2953 RMK SLP017

METARs EXPIRÉS :
  • 191600Z AUTO 24004KT 9SM CLR 04/M01 A2954 RMK SLP020
  • 191500Z AUTO 11002KT 9SM CLR M00/M02 A2953 RMK SLP022

TAF TAF CYQW
Valide du 19 à 12h jusqu'au 20 à 00h UTC


191138Z 1912/1924 VRB03KT P6SM SKC
BECMG 1918/1920 28010KT RMK FCST BASED ON AUTO OBS. NXT FCST BY 191800Z



MET'MAP, la Météo Aéronautique d'un coup d'oeil ! - Copyright ORBIFLY Décembre 2007 - Disclaimer

ORBIFLY MET'MAP TEAM :

Programmation & Développement : Alexandra Zaïnal
Conception & Développement : Baudouin d'Aumeries
Co-Programmation & Développement : Marc-Olivier Méhu
Soutien technique & logistique : Manuel Goepfert

Contact : metmap@orbifly.com




SOURCES & CREDITS :

   NOAA       Earth
Advisory